Time;durP1;ratioP1;P1;durP2;ratioP2;P2;SDS_P1;SDS_P2;PMS_P1;PMS_P2;Temp;Humidity;BMP_temperature;BMP_pressure;BME280_temperature;BME280_humidity;BME280_pressure;Samples;Min_cycle;Max_cycle;Signal;HPM_P1;HPM_P2
2023/09/26 00:01:53;;;;;;;3.05;1.92;;;16.40;99.90;;;;;;4185230;28;20521;-67
2023/09/26 00:03:54;;;;;;;4.68;2.08;;;16.40;99.90;;;;;;4184573;28;20028;-66
2023/09/26 00:05:55;;;;;;;2.97;2.10;;;16.40;99.90;;;;;;4184180;28;20466;-67
2023/09/26 00:07:56;;;;;;;3.65;2.03;;;16.40;99.90;;;;;;4183194;28;20024;-66
2023/09/26 00:09:57;;;;;;;2.47;1.80;;;16.40;99.90;;;;;;4185869;28;20574;-67
2023/09/26 00:11:57;;;;;;;2.20;1.73;;;16.40;99.90;;;;;;4184393;28;20075;-67
2023/09/26 00:13:58;;;;;;;3.58;1.70;;;16.40;99.90;;;;;;4181186;28;20599;-67
2023/09/26 00:15:59;;;;;;;2.38;1.60;;;16.40;99.90;;;;;;4177718;28;20041;-66
2023/09/26 00:17:59;;;;;;;2.50;1.80;;;16.40;99.90;;;;;;4180350;28;21512;-66
2023/09/26 00:20:00;;;;;;;2.10;1.40;;;16.30;99.90;;;;;;4186377;28;20036;-67
2023/09/26 00:22:01;;;;;;;2.30;1.80;;;16.30;99.90;;;;;;4183762;28;20029;-68
2023/09/26 00:24:01;;;;;;;2.78;1.60;;;16.30;99.90;;;;;;4181811;28;20029;-67
2023/09/26 00:26:07;;;;;;;2.38;1.60;;;16.30;99.90;;;;;;4181401;28;20043;-68
2023/09/26 00:28:07;;;;;;;2.92;1.38;;;16.30;99.90;;;;;;4182085;28;20120;-66
2023/09/26 00:30:09;;;;;;;7.15;1.88;;;16.30;99.90;;;;;;4182327;28;20072;-68
2023/09/26 00:32:09;;;;;;;2.78;1.80;;;16.30;99.90;;;;;;4168027;28;20041;-67
2023/09/26 00:34:10;;;;;;;2.65;1.88;;;16.20;99.90;;;;;;4184399;28;20038;-70
2023/09/26 00:36:11;;;;;;;2.97;2.00;;;16.20;99.90;;;;;;4181537;28;20037;-69
2023/09/26 00:38:11;;;;;;;2.58;1.83;;;16.20;99.90;;;;;;4182201;28;20499;-67
2023/09/26 00:40:18;;;;;;;3.65;2.08;;;16.20;99.90;;;;;;4183019;28;20028;-67
2023/09/26 00:42:19;;;;;;;2.85;1.60;;;16.20;99.90;;;;;;4182610;28;20111;-66
2023/09/26 00:44:19;;;;;;;3.13;2.00;;;16.20;99.90;;;;;;4185830;28;20021;-67
2023/09/26 00:46:20;;;;;;;3.90;2.03;;;16.20;99.90;;;;;;4185926;28;20119;-67
2023/09/26 00:48:25;;;;;;;2.42;1.77;;;16.20;99.90;;;;;;4183039;28;20080;-67
2023/09/26 00:50:26;;;;;;;2.50;1.90;;;16.20;99.90;;;;;;4176738;28;20452;-66
2023/09/26 00:52:28;;;;;;;4.07;2.15;;;16.20;99.90;;;;;;4180422;28;20079;-66
2023/09/26 00:54:29;;;;;;;2.53;1.97;;;16.20;99.90;;;;;;4186892;28;20124;-69
2023/09/26 00:56:30;;;;;;;2.80;1.92;;;16.20;99.90;;;;;;4177820;28;25255;-68
2023/09/26 00:58:33;;;;;;;2.78;2.13;;;16.20;99.90;;;;;;4186527;28;20499;-69
2023/09/26 01:00:35;;;;;;;3.30;1.70;;;16.10;99.90;;;;;;4174094;28;20027;-69
2023/09/26 01:02:36;;;;;;;2.63;1.75;;;16.10;99.90;;;;;;4172570;28;20055;-69
2023/09/26 01:04:37;;;;;;;2.60;1.67;;;16.10;99.90;;;;;;4190831;28;20366;-69
2023/09/26 01:06:37;;;;;;;2.10;1.60;;;16.00;99.90;;;;;;4182850;28;20089;-69
2023/09/26 01:08:38;;;;;;;2.90;1.83;;;16.00;99.90;;;;;;4182319;28;20029;-69
2023/09/26 01:10:39;;;;;;;3.72;1.98;;;16.00;99.90;;;;;;4183662;28;20032;-70
2023/09/26 01:12:40;;;;;;;2.95;1.80;;;16.00;99.90;;;;;;4183267;28;20025;-72
2023/09/26 01:14:41;;;;;;;2.63;1.40;;;16.00;99.90;;;;;;4186570;28;20033;-72
2023/09/26 01:16:41;;;;;;;3.63;2.08;;;15.90;99.90;;;;;;4184162;28;20033;-72
2023/09/26 01:18:43;;;;;;;2.88;1.85;;;15.90;99.90;;;;;;4179105;28;20033;-72
2023/09/26 01:20:45;;;;;;;2.60;1.60;;;15.90;99.90;;;;;;4163183;28;20155;-72
2023/09/26 01:22:46;;;;;;;2.03;1.50;;;15.90;99.90;;;;;;4181814;28;21654;-72
2023/09/26 01:24:47;;;;;;;1.95;1.40;;;15.90;99.90;;;;;;4178228;28;20036;-72
2023/09/26 01:26:48;;;;;;;3.40;1.80;;;15.90;99.90;;;;;;4183392;28;20056;-72
2023/09/26 01:28:48;;;;;;;2.53;1.77;;;15.90;99.90;;;;;;4186070;28;20058;-72
2023/09/26 01:30:49;;;;;;;2.55;1.80;;;15.90;99.90;;;;;;4178723;28;20033;-72
2023/09/26 01:32:49;;;;;;;2.80;1.65;;;15.80;99.90;;;;;;4181785;28;20489;-72
2023/09/26 01:34:50;;;;;;;5.43;2.17;;;15.90;99.90;;;;;;4182141;28;20032;-72
2023/09/26 01:36:51;;;;;;;3.55;2.05;;;15.80;99.90;;;;;;4181074;28;20521;-72
2023/09/26 01:38:51;;;;;;;2.65;1.80;;;15.80;99.90;;;;;;4181322;28;20025;-72
2023/09/26 01:40:52;;;;;;;3.45;1.95;;;15.80;99.90;;;;;;4183084;28;20029;-72
2023/09/26 01:42:52;;;;;;;3.30;1.90;;;15.80;99.90;;;;;;4186930;28;20047;-72
2023/09/26 01:44:53;;;;;;;2.35;1.77;;;15.80;99.90;;;;;;4184962;28;20436;-72
2023/09/26 01:46:54;;;;;;;3.67;1.77;;;15.80;99.90;;;;;;4184285;28;20075;-72
2023/09/26 01:48:54;;;;;;;4.47;1.95;;;15.80;99.90;;;;;;4182840;28;20033;-72
2023/09/26 01:50:55;;;;;;;2.70;1.52;;;15.80;99.90;;;;;;4179310;28;20040;-72
2023/09/26 01:52:55;;;;;;;3.85;2.13;;;15.80;99.90;;;;;;4183259;28;20029;-66
2023/09/26 01:54:56;;;;;;;2.05;1.80;;;15.80;99.90;;;;;;4183586;28;20037;-67
2023/09/26 01:56:57;;;;;;;2.17;1.83;;;15.80;99.90;;;;;;4160070;28;20406;-67
2023/09/26 01:58:57;;;;;;;2.78;1.95;;;15.80;99.90;;;;;;4183811;28;20111;-66
2023/09/26 02:00:58;;;;;;;2.95;2.10;;;15.70;99.90;;;;;;4180679;28;20056;-67
2023/09/26 02:02:59;;;;;;;3.05;1.88;;;15.70;99.90;;;;;;4184544;28;20024;-66
2023/09/26 02:05:00;;;;;;;4.45;2.15;;;15.70;99.90;;;;;;4186415;28;20029;-66
2023/09/26 02:07:00;;;;;;;2.17;1.63;;;15.70;99.90;;;;;;4180898;28;20033;-66
2023/09/26 02:09:01;;;;;;;3.25;1.88;;;15.70;99.90;;;;;;4184884;28;20036;-69
2023/09/26 02:11:02;;;;;;;2.55;1.60;;;15.60;99.90;;;;;;4181270;28;20051;-69
2023/09/26 02:13:02;;;;;;;2.25;1.60;;;15.60;99.90;;;;;;4176759;28;20033;-67
2023/09/26 02:15:05;;;;;;;2.70;2.00;;;15.60;99.90;;;;;;4178809;28;20401;-67
2023/09/26 02:17:06;;;;;;;2.67;1.50;;;15.60;99.90;;;;;;4183986;28;20501;-67
2023/09/26 02:19:08;;;;;;;2.60;1.80;;;15.60;99.90;;;;;;4179327;28;20036;-67
2023/09/26 02:21:16;;;;;;;2.35;1.65;;;15.60;99.90;;;;;;4182361;28;20566;-68
2023/09/26 02:23:16;;;;;;;2.47;1.75;;;15.50;99.90;;;;;;4177974;28;20034;-66
2023/09/26 02:25:19;;;;;;;3.97;2.10;;;15.50;99.90;;;;;;4179061;28;20523;-66
2023/09/26 02:27:20;;;;;;;;;;;15.50;99.90;;;;;;4182577;28;20091;-66
2023/09/26 02:29:20;;;;;;;2.35;1.80;;;15.50;99.90;;;;;;4179082;28;20316;-66
2023/09/26 02:31:21;;;;;;;3.72;1.95;;;15.50;99.90;;;;;;4182154;28;20502;-66
2023/09/26 02:33:22;;;;;;;3.72;1.65;;;15.50;99.90;;;;;;4183653;28;21266;-67
2023/09/26 02:35:22;;;;;;;2.63;2.00;;;15.50;99.90;;;;;;4174611;28;20045;-67
2023/09/26 02:37:23;;;;;;;3.13;1.92;;;15.50;99.90;;;;;;4187674;28;20054;-67
2023/09/26 02:39:23;;;;;;;3.97;2.45;;;15.50;99.90;;;;;;4179751;28;20086;-68
2023/09/26 02:41:24;;;;;;;3.00;2.03;;;15.50;99.90;;;;;;4181333;28;20587;-66
2023/09/26 02:43:25;;;;;;;2.70;1.75;;;15.50;99.90;;;;;;4177712;28;20032;-66
2023/09/26 02:45:26;;;;;;;2.55;1.75;;;15.40;99.90;;;;;;4175296;28;20047;-67
2023/09/26 02:47:27;;;;;;;2.85;2.00;;;15.40;99.90;;;;;;4182436;28;20052;-67
2023/09/26 02:49:27;;;;;;;2.97;1.70;;;15.40;99.90;;;;;;4182850;28;20040;-66
2023/09/26 02:51:28;;;;;;;2.05;1.65;;;15.40;99.90;;;;;;4179570;28;20110;-66
2023/09/26 02:53:29;;;;;;;2.95;1.70;;;15.40;99.90;;;;;;4176279;28;20041;-68
2023/09/26 02:55:29;;;;;;;3.42;1.88;;;15.40;99.90;;;;;;4178354;28;20063;-66
2023/09/26 02:57:34;;;;;;;2.83;1.92;;;15.40;99.90;;;;;;4184952;28;20033;-66
2023/09/26 02:59:34;;;;;;;3.80;2.10;;;15.30;99.90;;;;;;4185169;28;20036;-67
2023/09/26 03:01:35;;;;;;;3.28;2.13;;;15.30;99.90;;;;;;4182337;28;20135;-66
2023/09/26 03:03:36;;;;;;;3.28;2.00;;;15.30;99.90;;;;;;4178810;28;20091;-66
2023/09/26 03:05:36;;;;;;;5.15;2.05;;;15.30;99.90;;;;;;4178910;28;20130;-66
2023/09/26 03:07:38;;;;;;;3.47;1.90;;;15.30;99.90;;;;;;4179407;28;20056;-66
2023/09/26 03:09:39;;;;;;;3.00;1.95;;;15.30;99.90;;;;;;4184253;28;21208;-66
2023/09/26 03:11:40;;;;;;;2.33;1.95;;;15.30;99.90;;;;;;4184200;28;20048;-66
2023/09/26 03:13:40;;;;;;;3.53;2.03;;;15.30;99.90;;;;;;4182131;28;20025;-66
2023/09/26 03:15:41;;;;;;;2.95;1.77;;;15.30;99.90;;;;;;4182004;28;20489;-66
2023/09/26 03:17:41;;;;;;;3.40;1.98;;;15.30;99.90;;;;;;4180854;28;20060;-66
2023/09/26 03:19:44;;;;;;;2.55;1.75;;;15.30;99.90;;;;;;4177179;28;20102;-69
2023/09/26 03:21:45;;;;;;;3.42;2.17;;;15.30;99.90;;;;;;4176205;28;20056;-66
2023/09/26 03:23:46;;;;;;;4.72;2.58;;;15.30;99.90;;;;;;4182935;28;20545;-67
2023/09/26 03:25:46;;;;;;;3.35;2.33;;;15.30;99.90;;;;;;4176619;28;20079;-66
2023/09/26 03:27:50;;;;;;;3.47;2.28;;;15.30;99.90;;;;;;4181063;28;20045;-66
2023/09/26 03:29:50;;;;;;;4.72;2.50;;;15.30;99.90;;;;;;4187887;28;20029;-66
2023/09/26 03:31:51;;;;;;;3.42;2.00;;;15.30;99.90;;;;;;4177183;28;20048;-66
2023/09/26 03:33:52;;;;;;;5.07;2.30;;;15.30;99.90;;;;;;4181369;28;20548;-66
2023/09/26 03:35:52;;;;;;;5.20;2.70;;;15.30;99.90;;;;;;4179914;28;20053;-66
2023/09/26 03:37:53;;;;;;;3.55;2.10;;;15.30;99.90;;;;;;4178978;28;20060;-66
2023/09/26 03:39:54;;;;;;;4.50;2.35;;;15.30;99.90;;;;;;4177646;28;20512;-66
2023/09/26 03:41:54;;;;;;;5.40;2.42;;;15.30;99.90;;;;;;4184952;28;20448;-67
2023/09/26 03:43:55;;;;;;;3.13;2.17;;;15.30;99.90;;;;;;4180666;28;20077;-66
2023/09/26 03:46:07;;;;;;;3.40;2.30;;;15.30;99.90;;;;;;4180782;28;20029;-67
2023/09/26 03:48:08;;;;;;;3.80;2.42;;;15.40;99.90;;;;;;4181207;28;20052;-67
2023/09/26 03:50:09;;;;;;;4.63;2.40;;;15.40;99.90;;;;;;4181327;28;20037;-67
2023/09/26 03:52:09;;;;;;;3.78;2.40;;;15.40;99.90;;;;;;4187007;28;20040;-66
2023/09/26 03:54:10;;;;;;;2.97;2.40;;;15.40;99.90;;;;;;4180686;28;20025;-69
2023/09/26 03:56:11;;;;;;;3.47;2.30;;;15.40;99.90;;;;;;4181889;28;20117;-68
2023/09/26 03:58:11;;;;;;;3.63;2.20;;;15.40;99.90;;;;;;4182297;28;20087;-69
2023/09/26 04:00:16;;;;;;;3.88;2.55;;;15.30;99.90;;;;;;4174725;28;20029;-69
2023/09/26 04:02:18;;;;;;;3.45;2.35;;;15.30;99.90;;;;;;4179594;28;20033;-68
2023/09/26 04:04:18;;;;;;;3.03;1.98;;;15.30;99.90;;;;;;4180910;28;20485;-69
2023/09/26 04:06:19;;;;;;;3.08;2.15;;;15.40;99.90;;;;;;4183345;28;20036;-68
2023/09/26 04:08:20;;;;;;;4.22;2.42;;;15.40;99.90;;;;;;4179036;28;20159;-69
2023/09/26 04:10:20;;;;;;;3.22;2.08;;;15.40;99.90;;;;;;4181237;28;20082;-68
2023/09/26 04:12:21;;;;;;;3.75;2.58;;;15.40;99.90;;;;;;4177655;28;20041;-68
2023/09/26 04:14:22;;;;;;;3.13;2.30;;;15.40;99.90;;;;;;4163968;28;20033;-67
2023/09/26 04:16:22;;;;;;;4.40;2.53;;;15.40;99.90;;;;;;4200818;28;20090;-66
2023/09/26 04:18:23;;;;;;;4.43;2.53;;;15.40;99.90;;;;;;4183548;28;20115;-66
2023/09/26 04:20:24;;;;;;;4.72;2.40;;;15.40;99.90;;;;;;4179012;28;20451;-66
2023/09/26 04:22:25;;;;;;;2.60;2.08;;;15.40;99.90;;;;;;4183579;28;20128;-66
2023/09/26 04:24:27;;;;;;;4.30;2.70;;;15.40;99.90;;;;;;4179944;28;20063;-69
2023/09/26 04:26:27;;;;;;;4.00;2.45;;;15.40;99.90;;;;;;4182654;28;20045;-68
2023/09/26 04:28:28;;;;;;;4.90;2.97;;;15.40;99.90;;;;;;4182005;28;20478;-69
2023/09/26 04:30:30;;;;;;;3.20;2.17;;;15.40;99.90;;;;;;4181034;28;20040;-69
2023/09/26 04:32:30;;;;;;;4.10;2.40;;;15.40;99.90;;;;;;4178580;28;20394;-69
2023/09/26 04:34:32;;;;;;;3.95;2.63;;;15.40;99.90;;;;;;4180792;28;20040;-69
2023/09/26 04:36:32;;;;;;;4.60;2.22;;;15.40;99.90;;;;;;4174847;28;20040;-69
2023/09/26 04:38:33;;;;;;;4.82;2.40;;;15.30;99.90;;;;;;4178664;28;20033;-69
2023/09/26 04:40:34;;;;;;;4.72;2.42;;;15.40;99.90;;;;;;4185482;28;20084;-69
2023/09/26 04:42:35;;;;;;;5.03;2.50;;;15.30;99.90;;;;;;4187122;28;20493;-69
2023/09/26 04:44:35;;;;;;;3.10;2.50;;;15.40;99.90;;;;;;4183870;28;20036;-69
2023/09/26 04:46:36;;;;;;;3.97;2.60;;;15.30;99.90;;;;;;4177987;28;20033;-69
2023/09/26 04:48:37;;;;;;;3.58;2.60;;;15.30;99.90;;;;;;4179969;28;20478;-69
2023/09/26 04:50:37;;;;;;;3.33;2.60;;;15.30;99.90;;;;;;4180837;28;20068;-69
2023/09/26 04:52:38;;;;;;;3.78;2.60;;;15.30;99.90;;;;;;4185333;28;20313;-69
2023/09/26 04:54:39;;;;;;;3.70;2.45;;;15.30;99.90;;;;;;4180299;28;20521;-70
2023/09/26 04:56:39;;;;;;;5.00;2.13;;;15.30;99.90;;;;;;4183287;28;20041;-69
2023/09/26 04:58:40;;;;;;;2.40;1.85;;;15.30;99.90;;;;;;4179236;28;20037;-69
2023/09/26 05:00:41;;;;;;;2.70;2.05;;;15.30;99.90;;;;;;4179527;28;20036;-69
2023/09/26 05:02:42;;;;;;;3.60;2.30;;;15.30;99.90;;;;;;4182315;28;20105;-69
2023/09/26 05:04:45;;;;;;;2.75;2.05;;;15.30;99.90;;;;;;4178079;28;20033;-69
2023/09/26 05:06:46;;;;;;;2.65;2.17;;;15.30;99.90;;;;;;4183940;28;20032;-69
2023/09/26 05:08:46;;;;;;;3.33;2.22;;;15.30;99.90;;;;;;4180722;28;20039;-69
2023/09/26 05:10:49;;;;;;;5.10;3.03;;;15.30;99.90;;;;;;4177758;28;20086;-69
2023/09/26 05:12:50;;;;;;;3.08;2.38;;;15.30;99.90;;;;;;4177077;28;20041;-69
2023/09/26 05:14:50;;;;;;;4.10;2.65;;;15.30;99.90;;;;;;4181503;28;20179;-69
2023/09/26 05:16:51;;;;;;;3.97;2.38;;;15.30;99.90;;;;;;4176915;28;20402;-69
2023/09/26 05:18:52;;;;;;;4.53;2.70;;;15.30;99.90;;;;;;4177308;28;20359;-69
2023/09/26 05:20:52;;;;;;;4.43;2.15;;;15.20;99.90;;;;;;4178075;28;20025;-69
2023/09/26 05:22:53;;;;;;;3.53;2.35;;;15.30;99.90;;;;;;4180308;28;20037;-67
2023/09/26 05:24:54;;;;;;;3.47;2.70;;;15.30;99.90;;;;;;4181637;28;20090;-65
2023/09/26 05:26:54;;;;;;;4.32;2.63;;;15.20;99.90;;;;;;4175078;28;20033;-66
2023/09/26 05:28:55;;;;;;;4.93;2.83;;;15.20;99.90;;;;;;4178120;28;20464;-66
2023/09/26 05:30:55;;;;;;;4.47;2.70;;;15.20;99.90;;;;;;4176510;28;20036;-65
2023/09/26 05:32:57;;;;;;;4.63;3.10;;;15.20;99.90;;;;;;4178893;28;20048;-68
2023/09/26 05:34:58;;;;;;;4.05;2.83;;;15.20;99.90;;;;;;4178485;28;20033;-68
2023/09/26 05:36:59;;;;;;;6.78;2.90;;;15.20;99.90;;;;;;4177218;28;20037;-68
2023/09/26 05:38:59;;;;;;;4.30;2.88;;;15.10;99.90;;;;;;4180309;28;20040;-68
2023/09/26 05:41:00;;;;;;;4.40;2.97;;;15.10;99.90;;;;;;4178447;28;20037;-68
2023/09/26 05:43:01;;;;;;;5.10;2.90;;;15.10;99.90;;;;;;4182650;28;20028;-69
2023/09/26 05:45:03;;;;;;;5.47;3.00;;;15.10;99.90;;;;;;4174968;28;20040;-68
2023/09/26 05:47:04;;;;;;;6.03;3.38;;;15.10;99.90;;;;;;4177651;28;20045;-68
2023/09/26 05:49:05;;;;;;;5.18;3.15;;;15.10;99.90;;;;;;4179387;28;20099;-68
2023/09/26 05:51:05;;;;;;;3.75;2.75;;;15.10;99.90;;;;;;4177195;28;20515;-68
2023/09/26 05:53:06;;;;;;;10.27;3.30;;;15.10;99.90;;;;;;4178603;28;20056;-69
2023/09/26 05:55:07;;;;;;;3.88;2.83;;;15.20;99.90;;;;;;4179138;28;20036;-68
2023/09/26 05:57:08;;;;;;;6.28;2.72;;;15.20;99.90;;;;;;4179925;28;20032;-68
2023/09/26 05:59:08;;;;;;;5.72;3.42;;;15.20;99.90;;;;;;4177384;28;20118;-69
2023/09/26 06:01:09;;;;;;;5.10;3.20;;;15.20;99.90;;;;;;4176465;28;20063;-69
2023/09/26 06:03:11;;;;;;;5.30;2.80;;;15.20;99.90;;;;;;4179548;28;20115;-68
2023/09/26 06:05:11;;;;;;;4.53;2.80;;;15.20;99.90;;;;;;4176879;28;20075;-68
2023/09/26 06:07:13;;;;;;;5.55;2.92;;;15.20;99.90;;;;;;4180053;28;20496;-69
2023/09/26 06:09:13;;;;;;;5.63;2.83;;;15.20;99.90;;;;;;4179964;28;20406;-68
2023/09/26 06:11:14;;;;;;;4.82;3.05;;;15.20;99.90;;;;;;4180609;28;20045;-68
2023/09/26 06:13:15;;;;;;;5.35;2.97;;;15.10;99.90;;;;;;4182299;28;20552;-68
2023/09/26 06:15:16;;;;;;;5.95;3.35;;;15.20;99.90;;;;;;4178368;28;20028;-68
2023/09/26 06:17:16;;;;;;;5.55;3.15;;;15.20;99.90;;;;;;4178685;28;20028;-68
2023/09/26 06:19:17;;;;;;;4.82;2.72;;;15.20;99.90;;;;;;4180018;28;20491;-68
2023/09/26 06:21:19;;;;;;;5.47;3.10;;;15.20;99.90;;;;;;4176201;28;20029;-68
2023/09/26 06:23:21;;;;;;;5.15;3.20;;;15.10;99.90;;;;;;4181287;28;20111;-68
2023/09/26 06:25:24;;;;;;;5.32;3.05;;;15.10;99.90;;;;;;4175682;28;20041;-68
2023/09/26 06:27:25;;;;;;;4.47;2.70;;;15.10;99.90;;;;;;4175498;28;20033;-68
2023/09/26 06:29:25;;;;;;;5.35;3.30;;;15.10;99.90;;;;;;4173743;28;20095;-68
2023/09/26 06:31:26;;;;;;;5.93;3.25;;;15.20;99.90;;;;;;4177915;28;20029;-74
2023/09/26 06:33:27;;;;;;;4.03;2.80;;;15.20;99.90;;;;;;4161275;28;20132;-72
2023/09/26 06:35:31;;;;;;;5.03;3.25;;;15.20;99.90;;;;;;4185690;28;21633;-74
2023/09/26 06:37:32;;;;;;;6.35;2.90;;;15.40;99.90;;;;;;4180421;28;20060;-74
2023/09/26 06:39:33;;;;;;;6.30;3.10;;;15.50;99.90;;;;;;4175220;28;20044;-71
2023/09/26 06:41:33;;;;;;;8.93;2.85;;;15.60;99.90;;;;;;4177394;28;20048;-74
2023/09/26 06:43:36;;;;;;;6.03;2.97;;;15.90;99.90;;;;;;4180537;28;20065;-68
2023/09/26 06:45:39;;;;;;;4.00;2.45;;;16.10;99.90;;;;;;4178366;28;20060;-68
2023/09/26 06:47:39;;;;;;;3.80;2.67;;;16.30;99.90;;;;;;4177493;28;20131;-68
2023/09/26 06:49:40;;;;;;;6.50;2.80;;;16.40;99.90;;;;;;4181324;28;20506;-68
2023/09/26 06:51:40;;;;;;;3.78;2.60;;;16.70;99.90;;;;;;4176846;28;20036;-68
2023/09/26 06:53:41;;;;;;;5.32;2.80;;;16.80;99.90;;;;;;4176717;28;20505;-69
2023/09/26 06:55:42;;;;;;;3.13;2.45;;;17.10;99.90;;;;;;4178043;28;20025;-69
2023/09/26 06:57:42;;;;;;;3.88;2.35;;;17.30;99.90;;;;;;4177403;28;20119;-69
2023/09/26 06:59:48;;;;;;;6.50;2.47;;;17.50;99.90;;;;;;4176458;28;20040;-69
2023/09/26 07:01:49;;;;;;;4.90;3.15;;;17.70;99.90;;;;;;4168026;28;20113;-68
2023/09/26 07:03:50;;;;;;;4.55;2.67;;;17.90;99.90;;;;;;4180437;28;20053;-68
2023/09/26 07:05:50;;;;;;;3.83;2.30;;;18.20;99.90;;;;;;4176970;28;20055;-68
2023/09/26 07:07:51;;;;;;;3.55;2.40;;;18.40;99.90;;;;;;4175971;28;20071;-69
2023/09/26 07:09:51;;;;;;;3.08;2.22;;;18.40;99.90;;;;;;4182187;28;20531;-69
2023/09/26 07:11:56;;;;;;;5.65;2.67;;;18.60;99.90;;;;;;4176770;28;20059;-69
2023/09/26 07:13:57;;;;;;;3.63;2.35;;;18.80;99.90;;;;;;4178950;28;20029;-68
2023/09/26 07:15:59;;;;;;;4.55;2.17;;;18.90;99.90;;;;;;4175723;28;20029;-68
2023/09/26 07:18:05;;;;;;;4.05;2.40;;;19.10;99.90;;;;;;4181277;28;20397;-69
2023/09/26 07:20:07;;;;;;;4.50;2.65;;;19.40;99.90;;;;;;4177043;28;20029;-68
2023/09/26 07:22:08;;;;;;;;;;;19.70;99.90;;;;;;4179983;28;20537;-68
2023/09/26 07:24:09;;;;;;;4.70;2.72;;;19.90;99.90;;;;;;4176953;28;19975;-68
2023/09/26 07:26:12;;;;;;;3.08;2.40;;;20.00;99.90;;;;;;4178194;28;20123;-69
2023/09/26 07:28:13;;;;;;;4.07;2.35;;;20.20;99.90;;;;;;4179290;28;20041;-69
2023/09/26 07:30:13;;;;;;;4.05;2.03;;;20.40;99.90;;;;;;4181074;28;20371;-69
2023/09/26 07:32:15;;;;;;;3.65;2.30;;;20.50;99.90;;;;;;4176094;28;20045;-68
2023/09/26 07:34:16;;;;;;;3.60;2.35;;;20.60;99.90;;;;;;4176226;28;20473;-69
2023/09/26 07:36:16;;;;;;;4.20;2.67;;;20.80;99.90;;;;;;4175211;28;20040;-68
2023/09/26 07:38:17;;;;;;;2.53;2.00;;;21.10;99.90;;;;;;4180973;28;20032;-68
2023/09/26 07:40:18;;;;;;;4.35;2.75;;;21.30;99.90;;;;;;4180187;28;20060;-66
2023/09/26 07:42:19;;;;;;;2.95;1.98;;;21.30;99.90;;;;;;4177385;28;20478;-67
2023/09/26 07:44:20;;;;;;;3.17;2.17;;;21.50;99.90;;;;;;4176555;28;20558;-68
2023/09/26 07:46:20;;;;;;;6.63;2.42;;;21.40;99.90;;;;;;4175390;28;20036;-69
2023/09/26 07:48:23;;;;;;;3.38;2.30;;;21.60;99.90;;;;;;4180116;28;20124;-69
2023/09/26 07:50:23;;;;;;;5.97;2.65;;;21.70;99.90;;;;;;4179735;28;20511;-68
2023/09/26 07:52:26;;;;;;;6.18;3.10;;;21.90;99.90;;;;;;4183493;28;20045;-69
2023/09/26 07:54:27;;;;;;;4.38;2.63;;;21.90;99.90;;;;;;4184287;28;20052;-69
2023/09/26 07:56:28;;;;;;;4.07;2.80;;;22.00;99.90;;;;;;4181277;28;20121;-69
2023/09/26 07:58:28;;;;;;;3.83;2.45;;;21.90;99.90;;;;;;4166713;28;20528;-69
2023/09/26 08:00:29;;;;;;;3.20;2.30;;;22.00;99.90;;;;;;4182203;28;20118;-69
2023/09/26 08:02:30;;;;;;;4.63;2.60;;;22.20;99.90;;;;;;4183826;28;20040;-69
2023/09/26 08:04:31;;;;;;;7.75;3.28;;;22.20;99.90;;;;;;4178968;28;20037;-69
2023/09/26 08:06:31;;;;;;;5.95;3.10;;;22.10;99.90;;;;;;4182112;28;20199;-74
2023/09/26 08:08:34;;;;;;;5.47;2.72;;;22.20;99.90;;;;;;4180792;28;20050;-74
2023/09/26 08:10:38;;;;;;;7.13;2.80;;;22.30;99.90;;;;;;4183519;28;20123;-72
2023/09/26 08:12:41;;;;;;;5.00;2.75;;;22.20;99.90;;;;;;4183333;28;20029;-72
2023/09/26 08:14:41;;;;;;;6.15;3.42;;;22.10;99.90;;;;;;4183947;28;20036;-69
2023/09/26 08:16:42;;;;;;;6.63;2.72;;;22.10;99.90;;;;;;4182072;28;20041;-70
2023/09/26 08:18:42;;;;;;;6.38;2.65;;;22.10;99.90;;;;;;4183441;28;20568;-70
2023/09/26 08:20:46;;;;;;;5.22;3.08;;;22.00;99.90;;;;;;4181909;28;20040;-72
2023/09/26 08:22:46;;;;;;;4.97;2.67;;;21.90;99.90;;;;;;4179310;28;20045;-71
2023/09/26 08:24:47;;;;;;;4.88;2.58;;;21.90;99.90;;;;;;4181115;28;20047;-70
2023/09/26 08:26:48;;;;;;;3.45;2.60;;;21.80;99.90;;;;;;4161563;28;20083;-68
2023/09/26 08:28:50;;;;;;;5.40;2.50;;;22.00;99.90;;;;;;4180325;28;20782;-72
2023/09/26 08:30:51;;;;;;;7.10;3.10;;;21.90;99.90;;;;;;4179528;28;20047;-72
2023/09/26 08:32:51;;;;;;;3.90;2.55;;;21.70;99.90;;;;;;4181525;28;20028;-72
2023/09/26 08:34:52;;;;;;;7.82;2.72;;;21.70;99.90;;;;;;4184409;28;20094;-71
2023/09/26 08:36:52;;;;;;;6.55;3.10;;;21.70;99.90;;;;;;4182400;28;20035;-70
2023/09/26 08:38:55;;;;;;;4.65;2.90;;;21.80;99.90;;;;;;4181255;28;20037;-70
2023/09/26 08:40:58;;;;;;;5.85;2.95;;;21.80;99.90;;;;;;4180555;28;20029;-72
2023/09/26 08:42:58;;;;;;;3.88;2.47;;;21.70;99.90;;;;;;4179399;28;20048;-71
2023/09/26 08:45:00;;;;;;;4.13;2.00;;;21.80;99.90;;;;;;4186952;28;20401;-72
2023/09/26 08:47:02;;;;;;;5.33;2.30;;;21.80;99.90;;;;;;4177215;28;20092;-71
2023/09/26 08:49:04;;;;;;;3.60;2.13;;;21.90;99.90;;;;;;4183047;28;20472;-72
2023/09/26 08:51:05;;;;;;;4.93;2.75;;;21.90;99.90;;;;;;4178613;28;20112;-72
2023/09/26 08:53:06;;;;;;;4.05;2.40;;;22.00;99.90;;;;;;4179404;28;20060;-64
2023/09/26 08:55:07;;;;;;;8.00;2.97;;;22.00;99.90;;;;;;4181600;28;20178;-65
2023/09/26 08:57:09;;;;;;;4.20;2.67;;;22.10;99.90;;;;;;4181081;28;20033;-66
2023/09/26 08:59:11;;;;;;;3.72;2.20;;;22.10;99.90;;;;;;4183247;28;20033;-67
2023/09/26 09:01:12;;;;;;;5.45;2.53;;;22.10;99.90;;;;;;4176728;28;20036;-66
2023/09/26 09:03:15;;;;;;;4.95;2.90;;;22.20;99.90;;;;;;4179920;28;20474;-72
2023/09/26 09:05:20;;;;;;;5.07;2.42;;;22.10;99.90;;;;;;4177375;28;20037;-74
2023/09/26 09:07:22;;;;;;;3.38;1.98;;;22.20;99.90;;;;;;4178600;28;20072;-73
2023/09/26 09:09:22;;;;;;;2.63;2.20;;;22.20;99.90;;;;;;4178158;28;20534;-74
2023/09/26 09:11:33;;;;;;;5.65;2.55;;;22.10;99.90;;;;;;4178283;28;20074;-71
2023/09/26 09:13:37;;;;;;;7.40;2.38;;;22.20;99.90;;;;;;4180120;28;20155;-74
2023/09/26 09:15:39;;;;;;;4.05;2.85;;;22.20;99.90;;;;;;4176220;28;20074;-74
2023/09/26 09:17:40;;;;;;;13.43;3.80;;;22.20;99.90;;;;;;4181995;28;20044;-74
2023/09/26 09:19:48;;;;;;;5.28;2.65;;;22.30;99.90;;;;;;4184357;28;20113;-74
2023/09/26 09:21:49;;;;;;;2.88;2.15;;;22.30;99.90;;;;;;4177507;28;20455;-75
2023/09/26 09:23:51;;;;;;;4.40;2.47;;;22.30;99.90;;;;;;4179919;28;20029;-75
2023/09/26 09:25:51;;;;;;;3.07;2.33;;;22.40;99.90;;;;;;4170881;28;20032;-75
2023/09/26 09:27:52;;;;;;;6.05;2.80;;;22.40;99.90;;;;;;4181809;28;20271;-75
2023/09/26 09:30:09;;;;;;;4.30;2.67;;;22.40;99.90;;;;;;4181499;28;20040;-75
2023/09/26 09:32:09;;;;;;;3.70;2.35;;;22.40;99.90;;;;;;4178325;28;20096;-75
2023/09/26 09:34:11;;;;;;;4.05;2.53;;;22.40;99.90;;;;;;4183343;28;20475;-67
2023/09/26 09:36:12;;;;;;;3.95;2.15;;;22.50;99.90;;;;;;4180605;28;20170;-66
2023/09/26 09:38:17;;;;;;;4.30;2.33;;;22.60;99.90;;;;;;4181766;28;20027;-67
2023/09/26 09:40:22;;;;;;;4.20;2.40;;;22.60;99.90;;;;;;4176394;28;20069;-67
2023/09/26 09:42:23;;;;;;;3.78;2.22;;;22.60;99.90;;;;;;4177623;28;20048;-65
2023/09/26 09:44:24;;;;;;;3.38;2.08;;;22.60;99.90;;;;;;4180564;28;20033;-64
2023/09/26 09:46:26;;;;;;;3.38;2.20;;;22.60;99.90;;;;;;4173703;28;20037;-65
2023/09/26 09:48:29;;;;;;;2.88;2.13;;;22.60;99.80;;;;;;4179888;28;20059;-65
2023/09/26 09:50:32;;;;;;;3.55;1.92;;;22.50;99.90;;;;;;4167335;28;20080;-65
2023/09/26 09:52:33;;;;;;;3.88;1.85;;;22.60;99.90;;;;;;4153785;28;20044;-64
2023/09/26 09:54:37;;;;;;;3.53;2.17;;;22.70;99.90;;;;;;4193810;28;20032;-64
2023/09/26 09:56:39;;;;;;;3.45;1.95;;;22.70;99.90;;;;;;4178020;28;20044;-64
2023/09/26 09:58:44;;;;;;;3.88;2.28;;;22.80;99.90;;;;;;4181608;28;20028;-64
2023/09/26 10:00:45;;;;;;;3.60;2.30;;;22.80;99.90;;;;;;4148566;28;20033;-64
2023/09/26 10:02:46;;;;;;;4.55;2.25;;;22.80;99.90;;;;;;4180059;28;20047;-63
2023/09/26 10:04:48;;;;;;;4.38;2.28;;;22.80;99.90;;;;;;4180634;28;20090;-64
2023/09/26 10:06:49;;;;;;;5.18;2.53;;;22.70;99.90;;;;;;4178828;28;20036;-65
2023/09/26 10:08:51;;;;;;;2.90;2.13;;;22.70;99.90;;;;;;4170036;28;20399;-64
2023/09/26 10:10:53;;;;;;;5.18;2.38;;;22.60;99.60;;;;;;4161318;28;20043;-63
2023/09/26 10:12:54;;;;;;;4.75;2.63;;;22.60;99.40;;;;;;4182491;28;20055;-63
2023/09/26 10:14:58;;;;;;;6.50;2.58;;;22.60;99.90;;;;;;4177628;28;20067;-64
2023/09/26 10:16:59;;;;;;;4.47;2.33;;;22.60;99.90;;;;;;4175501;28;20067;-64
2023/09/26 10:19:00;;;;;;;4.93;2.40;;;22.60;99.90;;;;;;4177081;28;20067;-64
2023/09/26 10:21:01;;;;;;;3.47;2.20;;;22.60;99.70;;;;;;4174716;28;20194;-65
2023/09/26 10:23:11;;;;;;;4.90;2.45;;;22.70;99.90;;;;;;4175872;28;20483;-64
2023/09/26 10:25:19;;;;;;;3.88;2.13;;;22.70;99.90;;;;;;4179350;28;20386;-66
2023/09/26 10:27:36;;;;;;;15.35;2.95;;;22.80;99.90;;;;;;4177882;28;20040;-65
2023/09/26 10:29:38;;;;;;;4.28;2.00;;;22.80;99.90;;;;;;4176392;28;20044;-65
2023/09/26 10:31:41;;;;;;;3.50;2.00;;;22.90;99.90;;;;;;4179337;28;20088;-64
2023/09/26 10:33:54;;;;;;;4.55;2.20;;;22.90;99.90;;;;;;4178463;28;20071;-64